Baker City, OR (97814)

10:33 PM PST on February 13, 2016 (GMT -0800)
Baker City Municipal | | Change Station
CLOSE
Current Station
Airport
Location: Baker,
Elevation: 3373 ft
Nearby Weather Stations

Elev 3373 ft 44.84 °N, 117.81 °W | Updated 40 minutes ago

Rain
Rain
35 °F
Feels Like 35 °F
N
0
Wind Variable Wind from North

Today
High -- | Low -- °F
--% Chance of Precip.
Yesterday
High -- | Low -- °F
Precip. -- in
Pressure 30.23 in
Visibility 10.0 miles
Clouds Few 1500 ft
Scattered Clouds 3100 ft
Overcast 5500 ft
Dew Point 33 °F
Humidity 92%
Rainfall 0.00 in
Snow Depth Not available.
6:55 AM 5:16 PM
Waxing Crescent, 38% visible
METAR KBKE 140553Z AUTO 00000KT 10SM -RA FEW015 SCT031 OVC055 02/01 A3018 RMK AO2 SLP237 P0000 60000 T00170006 10067 20017 50003 TSNO
Pressure 30.23 in
Visibility 10.0 miles
Clouds Few 1500 ft
Scattered Clouds 3100 ft
Overcast 5500 ft
Dew Point 33 °F
Humidity 92%
Rainfall 0.00 in
Snow Depth Not available.
6:55 AM 5:16 PM
Waxing Crescent, 38% visible
METAR KBKE 140553Z AUTO 00000KT 10SM -RA FEW015 SCT031 OVC055 02/01 A3018 RMK AO2 SLP237 P0000 60000 T00170006 10067 20017 50003 TSNO

10-Day Weather Forecast

Almanac

Astronomy

Feb. 13, 2016 Rise Set
Actual Time
Civil Twilight
Nautical Twilight
Astronomical Twilight
Moon
Length of Visible Light
Length of Day
Tomorrow will be .
, % of the Moon is Illuminated

Today's Extremes

State Highs State Lows

Community

WunderPhotos

Upload Photos

1,892,757 photos uploaded!

WunderBlog® & News

Nearby

Air Quality

  Air Quality AQ Index Pollutant
Not available.

Snow Depth

Station Depth Elevation

Earthquake Activity

City Distance Mag. Time & Date
Minimum magnitude displayed is 2.5.

Coastal Water Temperatures

Place Temperature

Stations

Nearby Weather Stations

Station Location Temp. Windchill Dew Point Humidity Wind Precip. Elev Updated Type
                   

Watches & Warnings

There are currently no watches in effect.